To NAV CANADA Home Page Login to a new session Search on AWWS site Feedback and Comments Disclaimer Vers la page française équivalente Tips FAQ What's new on the site To the Forecasts and Observations / NOTAM section To "File a Flight Plan" website Publications and other links Update of the User's profile FIC Telephone Numbers My Weather Data Folder Route Weather Data Regional Weather Data Local Weather Data To the Forecasts and Observations / NOTAM section
Request Generated 10/18/2017 at 03:54:14 UTC . Weather information available at that time is displayed.

METAR/TAF

ARVIAT/NU    (show WxCam)

METAR CYEK 180300Z AUTO 14014G19KT 9SM SCT021 OVC032 M00/M03 A2975
RMK SLP077=
METAR CYEK 180200Z AUTO 13012KT 9SM OVC036 M01/M03 A2975 RMK SLP078=
METAR CYEK 180100Z AUTO 14011KT 9SM FEW024 OVC042 M01/M03 A2977 RMK
SLP082=

TAF CYEK 172338Z 1800/1812 36005KT P6SM SCT007 BKN030 TEMPO 1800/1804
BKN007
BECMG 1800/1802 15010KT
FM180400 15015G25KT P6SM SCT010 BKN050 TEMPO 1804/1812 4SM -SN
BKN010
BECMG 1808/1810 12020G30KT
RMK NXT FCST BY 180600Z=
Your time UTC time
Weather data provided by Environment Canada and NAV CANADA